Time;durP1;ratioP1;P1;durP2;ratioP2;P2;SDS_P1;SDS_P2;PMS_P1;PMS_P2;Temp;Humidity;BMP_temperature;BMP_pressure;BME280_temperature;BME280_humidity;BME280_pressure;Samples;Min_cycle;Max_cycle;Signal;HPM_P1;HPM_P2
2022/05/22 00:00:42;;;;;;;12.65;2.62;;;;;;;18.15;100.00;99553.72;1672439;84;21063;-62
2022/05/22 00:03:09;;;;;;;6.37;2.42;;;;;;;18.17;100.00;99553.59;1672465;86;21058;-62
2022/05/22 00:05:38;;;;;;;9.90;2.15;;;;;;;18.04;100.00;99555.66;1643840;86;21544;-61
2022/05/22 00:08:08;;;;;;;7.80;2.25;;;;;;;17.93;100.00;99560.05;1672652;85;22382;-61
2022/05/22 00:10:37;;;;;;;9.58;2.60;;;;;;;17.88;100.00;99549.70;1672530;86;21044;-61
2022/05/22 00:13:05;;;;;;;14.90;2.40;;;;;;;17.82;100.00;99561.45;1672352;85;21063;-61
2022/05/22 00:15:33;;;;;;;7.67;2.10;;;;;;;17.75;100.00;99565.09;1672175;86;21106;-61
2022/05/22 00:18:00;;;;;;;7.85;2.22;;;;;;;17.63;100.00;99567.00;1672927;86;21060;-61
2022/05/22 00:20:27;;;;;;;14.15;2.22;;;;;;;17.63;100.00;99559.67;1672213;85;21642;-61
2022/05/22 00:22:55;;;;;;;5.65;2.05;;;;;;;17.47;100.00;99563.30;1672261;86;21071;-62
2022/05/22 00:25:22;;;;;;;11.40;2.20;;;;;;;17.52;100.00;99559.33;1672324;84;21064;-62
2022/05/22 00:27:52;;;;;;;7.03;2.15;;;;;;;17.52;100.00;99563.72;1672198;84;21051;-62
2022/05/22 00:30:20;;;;;;;9.20;2.27;;;;;;;17.25;100.00;99576.05;1672459;86;21067;-61
2022/05/22 00:32:48;;;;;;;8.65;2.00;;;;;;;17.32;100.00;99579.78;1672293;86;21055;-62
2022/05/22 00:35:16;;;;;;;10.18;2.08;;;;;;;17.23;100.00;99576.17;1672441;86;21060;-62
2022/05/22 00:37:44;;;;;;;5.90;1.85;;;;;;;17.20;100.00;99572.07;1672188;85;21056;-61
2022/05/22 00:40:12;;;;;;;12.50;2.22;;;;;;;17.11;100.00;99566.84;1672413;86;21059;-61
2022/05/22 00:42:43;;;;;;;11.38;2.30;;;;;;;17.18;100.00;99580.48;1672196;85;21588;-61
2022/05/22 00:45:10;;;;;;;10.38;2.58;;;;;;;17.12;100.00;99591.42;1672449;86;21084;-62
2022/05/22 00:47:37;;;;;;;11.25;1.92;;;;;;;17.10;100.00;99573.83;1672209;86;21063;-62
2022/05/22 00:50:07;;;;;;;13.45;2.92;;;;;;;17.11;100.00;99582.44;1671911;86;21587;-62
2022/05/22 00:52:42;;;;;;;14.23;2.37;;;;;;;17.07;100.00;99587.11;1672165;86;21055;-62
2022/05/22 00:55:16;;;;;;;10.80;2.33;;;;;;;16.89;100.00;99575.20;1671625;86;21015;-62
2022/05/22 00:57:48;;;;;;;9.95;2.00;;;;;;;16.94;100.00;99577.40;1672323;86;21056;-61
2022/05/22 01:00:20;;;;;;;10.78;2.10;;;;;;;17.04;100.00;99572.23;1672469;86;21071;-61
2022/05/22 01:05:36;;;;;;;6.62;2.08;;;;;;;17.04;100.00;99568.34;1672315;86;21051;-62
2022/05/22 01:08:04;;;;;;;11.35;2.08;;;;;;;16.94;100.00;99564.41;1672214;86;21071;-62
2022/05/22 01:10:44;;;;;;;11.53;2.02;;;;;;;16.90;100.00;99557.82;1672371;85;21067;-61
2022/05/22 01:13:16;;;;;;;11.83;2.25;;;;;;;16.85;100.00;99557.38;1672440;86;21588;-61
2022/05/22 01:15:44;;;;;;;8.80;1.87;;;;;;;16.74;100.00;99547.39;1672392;86;21552;-62
2022/05/22 01:18:13;;;;;;;10.70;2.00;;;;;;;16.67;100.00;99548.88;1672304;86;21051;-62
2022/05/22 01:20:46;;;;;;;5.58;1.98;;;;;;;16.63;100.00;99540.52;1672485;86;21079;-62
2022/05/22 01:23:14;;;;;;;9.15;2.25;;;;;;;16.62;100.00;99531.55;1672541;86;21567;-62
2022/05/22 01:25:43;;;;;;;8.05;1.90;;;;;;;16.50;100.00;99528.69;1672221;85;21098;-62
2022/05/22 01:28:13;;;;;;;8.78;2.02;;;;;;;16.36;100.00;99527.25;1672149;85;21052;-62
2022/05/22 01:30:41;;;;;;;8.68;2.22;;;;;;;16.40;100.00;99515.65;1672317;85;21044;-62
2022/05/22 01:33:13;;;;;;;7.05;2.52;;;;;;;16.35;100.00;99506.14;1672259;85;21096;-62
2022/05/22 01:35:41;;;;;;;8.95;2.20;;;;;;;16.29;100.00;99504.87;1672420;86;21088;-62
2022/05/22 01:38:10;;;;;;;7.30;2.42;;;;;;;16.27;100.00;99516.34;1672376;85;21123;-62
2022/05/22 01:40:40;;;;;;;9.80;2.45;;;;;;;16.22;100.00;99513.66;1671354;86;21103;-62
2022/05/22 01:43:08;;;;;;;8.65;2.52;;;;;;;16.20;100.00;99515.56;1672090;85;21120;-62
2022/05/22 01:45:42;;;;;;;10.50;2.33;;;;;;;16.22;100.00;99520.16;1672474;85;21584;-62
2022/05/22 01:48:10;;;;;;;8.50;2.50;;;;;;;16.17;100.00;99533.98;1672438;86;21101;-62
2022/05/22 01:50:44;;;;;;;5.47;2.40;;;;;;;16.12;100.00;99523.63;1672417;86;21071;-62
2022/05/22 01:53:13;;;;;;;8.28;2.52;;;;;;;16.02;100.00;99530.89;1672291;86;21544;-62
2022/05/22 01:55:41;;;;;;;5.92;2.45;;;;;;;15.90;100.00;99523.30;1672274;85;21092;-62
2022/05/22 01:58:09;;;;;;;8.25;2.47;;;;;;;15.88;100.00;99521.30;1672285;86;21587;-62
2022/05/22 02:00:39;;;;;;;13.03;2.87;;;;;;;15.85;100.00;99539.22;1672332;86;21496;-62
2022/05/22 02:03:07;;;;;;;6.92;2.40;;;;;;;15.83;100.00;99543.72;1672500;86;21074;-62
2022/05/22 02:05:37;;;;;;;9.78;2.72;;;;;;;15.79;100.00;99535.83;1672270;86;21047;-62
2022/05/22 02:08:22;;;;;;;6.95;2.42;;;;;;;16.00;100.00;99525.48;1672425;85;21654;-62
2022/05/22 02:11:05;;;;;;;8.45;2.47;;;;;;;16.11;100.00;99522.81;1672388;86;21052;-62
2022/05/22 02:13:40;;;;;;;7.92;2.20;;;;;;;16.15;100.00;99525.50;1672242;85;21583;-62
2022/05/22 02:16:08;;;;;;;7.85;2.33;;;;;;;16.17;100.00;99540.47;1672265;86;21568;-62
2022/05/22 02:18:36;;;;;;;11.05;2.10;;;;;;;16.16;100.00;99544.48;1672105;86;21547;-62
2022/05/22 02:21:05;;;;;;;5.83;1.98;;;;;;;16.15;100.00;99537.18;1672279;86;21099;-62
2022/05/22 02:23:35;;;;;;;10.48;2.10;;;;;;;16.20;100.00;99538.94;1672275;86;21055;-62
2022/05/22 02:26:08;;;;;;;6.28;2.00;;;;;;;16.25;100.00;99536.43;1672122;84;21051;-62
2022/05/22 02:28:35;;;;;;;5.90;2.05;;;;;;;16.43;100.00;99530.50;1672089;84;21071;-62
2022/05/22 02:31:04;;;;;;;4.62;1.80;;;;;;;16.29;100.00;99539.94;1643043;86;21098;-62
2022/05/22 02:33:35;;;;;;;3.92;1.80;;;;;;;16.31;100.00;99539.33;1672127;85;21075;-62
2022/05/22 02:36:08;;;;;;;9.93;2.27;;;;;;;16.33;100.00;99548.30;1672188;86;21543;-62
2022/05/22 02:38:36;;;;;;;6.10;1.82;;;;;;;16.31;100.00;99548.91;1672312;86;21090;-62
2022/05/22 02:41:20;;;;;;;7.15;2.33;;;;;;;16.37;100.00;99556.18;1643222;86;21051;-62
2022/05/22 02:43:45;;;;;;;3.62;1.67;;;;;;;16.40;100.00;99559.35;1672320;86;21043;-62
2022/05/22 02:46:16;;;;;;;6.95;1.85;;;;;;;16.53;100.00;99559.14;1672087;85;21552;-62
2022/05/22 02:48:44;;;;;;;7.95;2.15;;;;;;;16.48;100.00;99562.58;1672430;84;21557;-62
2022/05/22 02:51:16;;;;;;;7.28;2.00;;;;;;;16.53;100.00;99559.14;1672210;86;21051;-62
2022/05/22 02:53:43;;;;;;;6.35;2.12;;;;;;;16.55;100.00;99572.82;1672480;84;21047;-62
2022/05/22 02:56:23;;;;;;;5.40;1.90;;;;;;;16.53;100.00;99570.83;1671401;86;21091;-62
2022/05/22 02:58:59;;;;;;;5.03;1.75;;;;;;;16.51;100.00;99566.72;1672425;85;21100;-61
2022/05/22 03:01:27;;;;;;;6.17;1.87;;;;;;;16.43;100.00;99571.25;1672452;86;21044;-62
2022/05/22 03:03:55;;;;;;;6.47;1.70;;;;;;;16.47;100.00;99566.63;1643692;86;21087;-61
2022/05/22 03:06:41;;;;;;;4.37;1.80;;;;;;;16.48;100.00;99568.26;1672278;86;21064;-61
2022/05/22 03:09:13;;;;;;;5.08;1.72;;;;;;;16.50;100.00;99574.15;1672289;85;21059;-61
2022/05/22 03:11:43;;;;;;;11.18;2.22;;;;;;;16.52;100.00;99570.95;1672381;84;21039;-62
2022/05/22 03:14:11;;;;;;;3.58;1.75;;;;;;;16.55;100.00;99571.52;1672332;86;21142;-61
2022/05/22 03:16:39;;;;;;;6.62;1.90;;;;;;;16.58;100.00;99583.42;1672243;84;21051;-62
2022/05/22 03:19:13;;;;;;;5.62;1.77;;;;;;;16.59;100.00;99582.48;1672626;86;21079;-63
2022/05/22 03:21:43;;;;;;;4.37;1.75;;;;;;;16.53;100.00;99574.72;1672369;86;21036;-62
2022/05/22 03:24:12;;;;;;;6.78;2.15;;;;;;;16.60;100.00;99577.14;1672350;85;21095;-62
2022/05/22 03:26:41;;;;;;;6.72;2.00;;;;;;;16.53;100.00;99573.91;1671087;85;21143;-62
2022/05/22 03:29:08;;;;;;;8.98;2.08;;;;;;;16.62;100.00;99566.14;1672201;85;21131;-62
2022/05/22 03:31:35;;;;;;;2.15;1.60;;;;;;;16.70;100.00;99571.18;1672213;85;21048;-62
2022/05/22 03:34:03;;;;;;;4.35;1.50;;;;;;;16.59;100.00;99578.59;1672185;85;21055;-62
2022/05/22 03:36:31;;;;;;;9.08;1.80;;;;;;;16.76;100.00;99573.25;1672241;85;21147;-62
2022/05/22 03:38:58;;;;;;;3.72;1.72;;;;;;;16.93;100.00;99557.54;1672459;86;21060;-62
2022/05/22 03:41:25;;;;;;;4.95;1.95;;;;;;;16.91;100.00;99555.09;1672250;85;21095;-62
2022/05/22 03:43:53;;;;;;;6.55;1.65;;;;;;;16.97;100.00;99561.52;1672389;85;21143;-62
2022/05/22 03:46:34;;;;;;;4.72;1.72;;;;;;;17.08;100.00;99570.53;1672162;84;21508;-61
2022/05/22 03:49:02;;;;;;;8.03;1.87;;;;;;;17.25;100.00;99561.26;1672372;86;21059;-61
2022/05/22 03:51:32;;;;;;;4.35;1.60;;;;;;;17.33;100.00;99545.80;1672096;86;21087;-61
2022/05/22 03:54:00;;;;;;;4.20;1.60;;;;;;;17.18;100.00;99544.56;1672442;85;21115;-61
2022/05/22 03:56:28;;;;;;;10.32;2.05;;;;;;;17.33;100.00;99544.50;1671893;86;21107;-61
2022/05/22 03:58:56;;;;;;;1.90;1.60;;;;;;;17.51;100.00;99549.05;1672595;86;21560;-62
2022/05/22 04:01:24;;;;;;;9.48;1.70;;;;;;;17.63;100.00;99543.58;1672229;85;21062;-62
2022/05/22 04:03:58;;;;;;;5.80;1.65;;;;;;;17.72;100.00;99534.60;1672324;86;21041;-62
2022/05/22 04:06:27;;;;;;;5.05;1.70;;;;;;;17.73;100.00;99534.47;1672112;86;21058;-62
2022/05/22 04:08:54;;;;;;;9.08;1.72;;;;;;;17.38;100.00;99534.53;1643627;86;21091;-62
2022/05/22 04:11:23;;;;;;;6.85;1.72;;;;;;;17.45;100.00;99544.39;1671115;86;21048;-62
2022/05/22 04:13:50;;;;;;;3.52;1.70;;;;;;;17.13;100.00;99533.72;1672444;86;21051;-62
2022/05/22 04:16:17;;;;;;;5.25;1.80;;;;;;;17.33;100.00;99528.08;1672232;86;21508;-62
2022/05/22 04:18:45;;;;;;;3.87;1.52;;;;;;;17.45;100.00;99530.90;1672443;86;21547;-62
2022/05/22 04:21:13;;;;;;;5.87;1.70;;;;;;;17.43;100.00;99534.92;1672638;85;21516;-62
2022/05/22 04:26:38;;;;;;;3.50;1.90;;;;;;;17.34;100.00;99544.86;1672895;84;21035;-61
2022/05/22 04:29:07;;;;;;;7.35;1.85;;;;;;;17.35;100.00;99528.77;1660607;86;21091;-61
2022/05/22 04:31:35;;;;;;;9.30;1.92;;;;;;;17.31;100.00;99536.50;1660833;86;21048;-61
2022/05/22 04:34:20;;;;;;;5.55;1.65;;;;;;;17.36;100.00;99543.44;1660070;86;21521;-62
2022/05/22 04:36:48;;;;;;;6.40;1.52;;;;;;;17.18;100.00;99544.08;1660686;85;21100;-61
2022/05/22 04:39:23;;;;;;;3.02;1.60;;;;;;;17.19;100.00;99550.09;1677099;84;21194;-61
2022/05/22 04:41:55;;;;;;;3.87;1.55;;;;;;;17.17;100.00;99553.30;1686907;84;21597;-61
2022/05/22 04:44:23;;;;;;;4.17;1.55;;;;;;;17.02;100.00;99553.67;1677577;85;21523;-61
2022/05/22 04:46:53;;;;;;;7.28;1.62;;;;;;;17.05;100.00;99556.48;1659650;86;21107;-62
2022/05/22 04:49:21;;;;;;;3.40;1.70;;;;;;;17.41;100.00;99542.53;1660897;86;21016;-61
2022/05/22 04:51:48;;;;;;;6.70;1.67;;;;;;;17.48;100.00;99564.92;1674628;86;21103;-61
2022/05/22 04:54:15;;;;;;;6.22;1.80;;;;;;;17.75;100.00;99555.98;1674783;86;21063;-62
2022/05/22 04:56:47;;;;;;;3.35;1.42;;;;;;;18.05;98.69;99553.41;1671394;86;21024;-62
2022/05/22 04:59:20;;;;;;;8.53;1.67;;;;;;;18.13;97.45;99545.23;1678617;84;21078;-62
2022/05/22 05:01:49;;;;;;;3.75;1.60;;;;;;;18.37;95.31;99540.02;1688655;84;21043;-62
2022/05/22 05:04:33;;;;;;;7.78;1.50;;;;;;;18.46;94.18;99530.05;1683056;84;21080;-62
2022/05/22 05:07:08;;;;;;;6.60;1.30;;;;;;;18.33;93.65;99527.77;1687556;84;21043;-62
2022/05/22 05:09:45;;;;;;;6.97;1.65;;;;;;;18.31;94.56;99527.09;1689386;84;21008;-62
2022/05/22 05:12:17;;;;;;;5.10;1.47;;;;;;;18.11;94.18;99520.30;1637393;84;21020;-62
2022/05/22 05:14:46;;;;;;;6.37;1.70;;;;;;;18.25;95.65;99526.81;1690417;84;21127;-62
2022/05/22 05:17:16;;;;;;;3.22;1.50;;;;;;;18.09;93.69;99521.73;1688154;84;21063;-62
2022/05/22 05:19:45;;;;;;;7.25;1.40;;;;;;;18.06;92.22;99515.97;1691154;84;21031;-62
2022/05/22 05:22:13;;;;;;;7.22;1.42;;;;;;;18.22;92.86;99516.20;1686910;84;21003;-62
2022/05/22 05:24:40;;;;;;;4.95;1.57;;;;;;;18.40;92.53;99511.89;1689090;84;21016;-62
2022/05/22 05:27:09;;;;;;;5.70;1.57;;;;;;;18.49;90.52;99516.76;1684340;84;21087;-61
2022/05/22 05:29:39;;;;;;;4.30;1.45;;;;;;;18.51;90.10;99504.41;1684709;85;21068;-62
2022/05/22 05:32:08;;;;;;;5.55;1.85;;;;;;;18.44;86.20;99516.84;1677793;85;21091;-60
2022/05/22 05:34:36;;;;;;;5.37;1.60;;;;;;;18.61;87.88;99505.18;1680863;85;20988;-61
2022/05/22 05:37:06;;;;;;;6.47;1.50;;;;;;;18.87;86.50;99495.88;1677660;85;20997;-61
2022/05/22 05:39:42;;;;;;;5.75;1.30;;;;;;;18.83;86.12;99510.18;1676992;84;21067;-61
2022/05/22 05:42:19;;;;;;;7.42;1.60;;;;;;;19.51;82.95;99517.09;1677084;85;21023;-61
2022/05/22 05:44:48;;;;;;;5.67;1.65;;;;;;;18.76;83.77;99516.44;1679860;85;21060;-61
2022/05/22 05:47:20;;;;;;;4.50;1.35;;;;;;;18.61;86.68;99514.30;1679003;85;21083;-62
2022/05/22 05:49:56;;;;;;;2.92;1.50;;;;;;;18.92;86.96;99515.84;1665837;85;21336;-62
2022/05/22 05:52:26;;;;;;;4.95;1.52;;;;;;;18.93;85.06;99516.98;1677612;85;21488;-61
2022/05/22 05:54:55;;;;;;;7.87;1.80;;;;;;;18.85;86.43;99503.03;1677887;84;21032;-61
2022/05/22 05:57:42;;;;;;;4.90;1.30;;;;;;;18.65;85.94;99512.70;1664940;86;21579;-61
2022/05/22 06:00:14;;;;;;;6.25;1.30;;;;;;;18.67;81.65;99518.09;1664825;86;21544;-61
2022/05/22 06:02:44;;;;;;;3.30;1.22;;;;;;;18.42;79.72;99512.58;1665174;86;21083;-61
2022/05/22 06:05:13;;;;;;;3.40;1.30;;;;;;;18.63;77.10;99514.14;1664767;86;21063;-61
2022/05/22 06:07:40;;;;;;;4.83;1.30;;;;;;;18.56;77.15;99526.94;1664959;86;21028;-62
2022/05/22 06:10:12;;;;;;;4.37;1.57;;;;;;;18.78;77.64;99512.70;1664559;86;21565;-60
2022/05/22 06:12:46;;;;;;;2.67;1.30;;;;;;;18.93;76.73;99497.91;1663010;86;21039;-61
2022/05/22 06:15:15;;;;;;;3.58;1.40;;;;;;;18.88;77.04;99504.87;1664657;86;21092;-61
2022/05/22 06:17:46;;;;;;;4.80;1.42;;;;;;;19.04;77.59;99502.09;1664914;86;21091;-61
2022/05/22 06:20:18;;;;;;;6.33;1.20;;;;;;;18.76;77.60;99496.88;1664461;86;21004;-61
2022/05/22 06:22:46;;;;;;;4.70;1.20;;;;;;;18.71;77.18;99494.69;1664791;86;21540;-61
2022/05/22 06:25:33;;;;;;;3.75;1.30;;;;;;;19.24;77.49;99502.30;1639916;87;21122;-61
2022/05/22 06:28:04;;;;;;;5.12;1.40;;;;;;;19.46;76.93;99493.20;1699699;83;21599;-61
2022/05/22 06:30:37;;;;;;;2.72;1.37;;;;;;;19.04;76.00;99487.28;1691747;84;21541;-61
2022/05/22 06:33:16;;;;;;;8.38;1.85;;;;;;;19.09;77.96;99482.92;1708100;84;21099;-61
2022/05/22 06:35:51;;;;;;;7.30;1.30;;;;;;;19.17;77.91;99477.78;1667435;84;21040;-61
2022/05/22 06:41:26;;;;;;;3.22;1.35;;;;;;;19.01;76.21;99477.95;1707428;84;21051;-61
2022/05/22 06:44:07;;;;;;;5.83;1.50;;;;;;;19.30;77.76;99479.55;1707624;84;21079;-61
2022/05/22 06:46:39;;;;;;;6.22;1.37;;;;;;;19.63;76.56;99469.39;1706869;84;21032;-61
2022/05/22 06:49:16;;;;;;;6.28;1.35;;;;;;;19.74;76.00;99480.91;1667697;84;21067;-61
2022/05/22 06:52:04;;;;;;;5.87;1.60;;;;;;;19.96;77.15;99486.62;1709496;84;21032;-61
2022/05/22 06:54:36;;;;;;;5.42;1.77;;;;;;;19.94;77.68;99478.93;1705954;84;21072;-62
2022/05/22 06:57:17;;;;;;;3.08;1.20;;;;;;;20.41;75.44;99471.19;1707250;84;21047;-62
2022/05/22 07:00:00;;;;;;;4.20;1.32;;;;;;;19.62;77.17;99476.38;1652936;84;21063;-61
2022/05/22 07:02:47;;;;;;;1.75;1.00;;;;;;;19.35;69.50;99481.22;1710039;83;21551;-61
2022/05/22 07:05:26;;;;;;;3.58;1.10;;;;;;;18.70;69.75;99489.64;1706582;84;21071;-61
2022/05/22 07:08:12;;;;;;;2.92;1.02;;;;;;;18.94;69.06;99481.31;1710352;83;21573;-61
2022/05/22 07:13:49;;;;;;;2.25;1.00;;;;;;;19.39;69.35;99457.77;1708707;84;21065;-62
2022/05/22 07:16:27;;;;;;;3.83;0.98;;;;;;;19.50;69.60;99461.11;1709306;84;21013;-61
2022/05/22 07:19:04;;;;;;;4.00;1.02;;;;;;;19.67;70.25;99455.06;1709676;84;21004;-61
2022/05/22 07:21:46;;;;;;;3.27;1.10;;;;;;;20.09;69.97;99453.05;1711616;82;21039;-62
2022/05/22 07:24:15;;;;;;;2.70;0.90;;;;;;;20.04;68.84;99442.27;1683730;84;21544;-62
2022/05/22 07:26:57;;;;;;;1.75;0.90;;;;;;;19.99;68.12;99464.09;1717576;82;21008;-62
2022/05/22 07:29:26;;;;;;;1.75;1.07;;;;;;;20.04;66.44;99450.59;1722050;81;21004;-62
2022/05/22 07:32:10;;;;;;;;;;;;;;;20.20;67.67;99434.50;1627653;88;21572;-62
2022/05/22 07:34:42;;;;;;;4.10;0.98;;;;;;;20.25;66.82;99447.59;1694777;82;20123;-62
2022/05/22 07:37:26;;;;;;;2.15;0.80;;;;;;;20.32;67.78;99427.71;1641982;86;21015;-62
2022/05/22 07:40:13;;;;;;;2.12;1.00;;;;;;;20.20;67.48;99437.12;1703314;82;21005;-61
2022/05/22 07:42:59;;;;;;;6.22;1.00;;;;;;;20.03;65.52;99440.61;1719149;82;21012;-62
2022/05/22 07:45:31;;;;;;;1.12;0.80;;;;;;;20.28;65.14;99425.08;1738911;82;21044;-61
2022/05/22 07:48:01;;;;;;;2.60;1.00;;;;;;;20.52;65.05;99418.63;1738558;82;21500;-62
2022/05/22 07:50:36;;;;;;;4.78;1.17;;;;;;;20.35;63.93;99432.11;1739616;82;21023;-62
2022/05/22 07:53:18;;;;;;;5.33;1.20;;;;;;;20.54;64.61;99430.22;1736474;82;21024;-62
2022/05/22 07:55:51;;;;;;;1.82;0.90;;;;;;;20.54;63.59;99419.77;1736767;82;21051;-62
2022/05/22 07:58:26;;;;;;;2.33;1.02;;;;;;;20.86;63.06;99426.09;1746261;82;21087;-62
2022/05/22 08:01:11;;;;;;;6.30;1.35;;;;;;;21.16;61.42;99412.39;1739823;82;21099;-62
2022/05/22 08:03:45;;;;;;;2.92;1.52;;;;;;;20.91;60.96;99427.25;1682324;82;21491;-62
2022/05/22 08:06:14;;;;;;;2.02;0.95;;;;;;;20.99;61.74;99425.15;1737885;82;21027;-62
2022/05/22 08:08:44;;;;;;;2.70;1.37;;;;;;;21.08;61.13;99414.19;1739704;81;21036;-63
2022/05/22 08:11:20;;;;;;;1.67;1.20;;;;;;;20.90;61.32;99415.64;1739546;82;21048;-62
2022/05/22 08:14:01;;;;;;;0.80;0.80;;;;;;;21.30;61.64;99410.12;1739306;82;21052;-62
2022/05/22 08:16:30;;;;;;;6.40;1.00;;;;;;;20.89;61.35;99424.48;1725526;82;21032;-62
2022/05/22 08:19:05;;;;;;;1.00;0.90;;;;;;;20.91;62.59;99410.75;1725868;82;21055;-62
2022/05/22 08:21:33;;;;;;;3.08;0.90;;;;;;;21.34;60.52;99414.05;1703824;84;21036;-62
2022/05/22 08:24:03;;;;;;;0.70;0.70;;;;;;;21.08;61.23;99421.55;1723521;82;21020;-62
2022/05/22 08:26:32;;;;;;;1.30;0.90;;;;;;;20.96;60.55;99417.61;1724166;82;21000;-61
2022/05/22 08:28:59;;;;;;;2.30;1.00;;;;;;;20.79;59.68;99415.47;1730035;81;21062;-61
2022/05/22 08:31:27;;;;;;;4.50;0.93;;;;;;;21.12;60.38;99410.27;1738959;82;20987;-61
2022/05/22 08:33:55;;;;;;;3.40;0.93;;;;;;;21.95;58.47;99405.30;1739541;82;21004;-61
2022/05/22 08:36:22;;;;;;;4.45;1.12;;;;;;;22.15;59.85;99411.79;1736637;82;21496;-60
2022/05/22 08:38:49;;;;;;;2.05;0.93;;;;;;;22.13;56.68;99412.45;1738681;82;21441;-61
2022/05/22 08:41:24;;;;;;;1.60;1.00;;;;;;;22.32;56.99;99418.31;1739983;82;21586;-61
2022/05/22 08:44:11;;;;;;;4.83;1.12;;;;;;;22.12;57.71;99416.08;1751286;81;21012;-61
2022/05/22 08:47:06;;;;;;;2.47;1.00;;;;;;;22.69;56.65;99406.31;1753089;82;21016;-60
2022/05/22 08:49:47;;;;;;;1.82;1.22;;;;;;;22.75;57.14;99405.15;1753609;82;21118;-62
2022/05/22 08:52:42;;;;;;;4.10;1.10;;;;;;;22.69;57.52;99408.94;1753540;82;21044;-61
2022/05/22 08:55:18;;;;;;;1.30;0.90;;;;;;;23.19;56.44;99405.02;1753424;82;21571;-60
2022/05/22 09:01:00;;;;;;;2.67;1.12;;;;;;;22.98;57.12;99406.97;1729892;82;21055;-62
2022/05/22 09:03:44;;;;;;;4.92;1.10;;;;;;;23.23;56.45;99397.11;1745991;82;21099;-60
2022/05/22 09:06:13;;;;;;;3.72;1.20;;;;;;;23.33;55.76;99381.12;1753302;82;21000;-60
2022/05/22 09:08:49;;;;;;;3.08;1.27;;;;;;;23.18;55.58;99395.53;1753599;82;21051;-61
2022/05/22 09:11:59;;;;;;;3.62;1.20;;;;;;;23.11;56.06;99380.16;1753701;82;21059;-61
2022/05/22 09:14:41;;;;;;;2.27;1.12;;;;;;;23.05;57.62;99383.48;1753537;82;21052;-61
2022/05/22 09:17:22;;;;;;;3.50;1.55;;;;;;;23.55;56.83;99371.56;1753574;82;21055;-61
2022/05/22 09:20:03;;;;;;;4.95;1.25;;;;;;;23.42;58.31;99384.00;1752356;82;21519;-61
2022/05/22 09:23:06;;;;;;;4.87;1.40;;;;;;;23.04;57.27;99383.18;1753584;82;21101;-61
2022/05/22 09:26:07;;;;;;;3.17;1.20;;;;;;;22.07;58.15;99373.01;1753406;82;21063;-61
2022/05/22 09:29:03;;;;;;;6.60;1.47;;;;;;;22.92;58.54;99372.24;1724223;82;21528;-60
2022/05/22 09:31:55;;;;;;;4.25;1.20;;;;;;;22.58;57.46;99387.36;1747524;82;21077;-61
2022/05/22 09:34:34;;;;;;;4.28;1.40;;;;;;;22.19;58.37;99381.63;1747630;82;21040;-61
2022/05/22 09:37:38;;;;;;;5.53;1.40;;;;;;;22.97;56.17;99366.79;1747828;82;21079;-61
2022/05/22 09:40:25;;;;;;;;;;;;;;;23.76;54.63;99351.97;1750153;81;21774;-61
2022/05/22 09:43:35;;;;;;;3.05;1.20;;;;;;;23.19;54.68;99368.27;1747943;82;20138;-61
2022/05/22 09:46:22;;;;;;;4.28;1.10;;;;;;;22.14;55.39;99364.77;1747539;82;21090;-61
2022/05/22 09:49:10;;;;;;;4.58;1.40;;;;;;;22.73;56.12;99366.94;1747363;82;21535;-61
2022/05/22 09:52:07;;;;;;;6.35;1.50;;;;;;;22.31;57.56;99372.12;1747499;82;21087;-62
2022/05/22 09:55:04;;;;;;;4.50;1.50;;;;;;;22.44;58.02;99367.12;1747789;82;21048;-63
2022/05/22 09:58:07;;;;;;;3.35;1.62;;;;;;;22.14;59.70;99374.78;1747439;82;21051;-60
2022/05/22 10:01:10;;;;;;;4.60;1.30;;;;;;;21.88;57.88;99360.63;1734617;82;21071;-61
2022/05/22 10:03:59;;;;;;;4.15;1.32;;;;;;;21.51;57.91;99355.48;1747526;82;21036;-62
2022/05/22 10:06:46;;;;;;;4.10;1.30;;;;;;;21.77;58.74;99363.09;1747601;82;21662;-62
2022/05/22 10:09:54;;;;;;;4.15;1.22;;;;;;;22.90;57.17;99360.59;1747597;82;21024;-61
2022/05/22 10:12:42;;;;;;;4.17;1.25;;;;;;;22.72;57.08;99360.88;1747692;82;21079;-62
2022/05/22 10:15:23;;;;;;;4.20;1.20;;;;;;;23.44;57.29;99352.29;1747177;82;21111;-62
2022/05/22 10:18:22;;;;;;;2.05;1.17;;;;;;;23.20;55.59;99351.54;1747521;82;21028;-62
2022/05/22 10:21:16;;;;;;;4.10;1.30;;;;;;;23.57;55.39;99345.92;1723514;82;21147;-62
2022/05/22 10:24:15;;;;;;;1.60;1.00;;;;;;;23.38;55.25;99348.08;1744301;82;21118;-62
2022/05/22 10:27:07;;;;;;;9.50;1.47;;;;;;;23.67;53.79;99341.22;1731958;82;21011;-62
2022/05/22 10:29:59;;;;;;;1.60;1.00;;;;;;;24.08;53.70;99335.50;1734256;82;21064;-62
2022/05/22 10:32:37;;;;;;;3.02;1.15;;;;;;;23.15;53.35;99352.05;1738766;82;21554;-61
2022/05/22 10:35:28;;;;;;;3.62;1.10;;;;;;;24.47;49.87;99335.63;1731880;82;22112;-62
2022/05/22 10:38:10;;;;;;;2.00;1.02;;;;;;;22.65;51.48;99353.41;1735752;82;20987;-61
2022/05/22 10:43:38;;;;;;;3.77;1.27;;;;;;;23.88;52.75;99337.87;1722684;82;21063;-60
2022/05/22 10:46:05;;;;;;;3.62;1.10;;;;;;;23.33;53.39;99348.30;1723608;82;21528;-61
2022/05/22 10:48:35;;;;;;;2.67;1.20;;;;;;;23.55;52.37;99341.35;1723462;82;21789;-61
2022/05/22 10:51:09;;;;;;;2.65;1.10;;;;;;;23.68;53.09;99359.95;1723671;82;21480;-61
2022/05/22 10:53:51;;;;;;;3.27;1.20;;;;;;;23.84;52.94;99334.49;1723767;82;21511;-61
2022/05/22 10:56:27;;;;;;;3.40;1.07;;;;;;;24.01;53.15;99337.25;1723560;82;21083;-61
2022/05/22 10:59:09;;;;;;;2.10;1.00;;;;;;;24.53;52.34;99336.73;1723190;82;21566;-61
2022/05/22 11:01:40;;;;;;;3.08;1.20;;;;;;;24.36;52.15;99344.02;1723384;82;21043;-61
2022/05/22 11:04:16;;;;;;;3.77;1.20;;;;;;;24.26;50.42;99339.05;1723609;83;21027;-61
2022/05/22 11:07:00;;;;;;;2.08;1.20;;;;;;;24.32;49.23;99335.69;1723730;82;21521;-61
2022/05/22 11:09:51;;;;;;;1.27;1.05;;;;;;;23.84;49.98;99337.92;1723939;82;21027;-62
2022/05/22 11:12:27;;;;;;;5.37;1.20;;;;;;;23.37;50.27;99355.63;1723810;82;21571;-62
2022/05/22 11:15:10;;;;;;;3.40;1.00;;;;;;;23.23;49.59;99347.23;1723845;82;21043;-61
2022/05/22 11:17:38;;;;;;;2.60;1.10;;;;;;;23.01;49.95;99346.23;1723921;82;21063;-61
2022/05/22 11:20:17;;;;;;;2.22;1.32;;;;;;;22.48;51.10;99349.24;1748039;82;21543;-62
2022/05/22 11:23:08;;;;;;;1.42;1.10;;;;;;;23.02;50.75;99353.16;1740479;82;21019;-62
2022/05/22 11:26:05;;;;;;;2.80;1.10;;;;;;;23.07;50.90;99348.19;1738754;82;20999;-62
2022/05/22 11:29:01;;;;;;;1.98;1.27;;;;;;;23.24;51.38;99347.56;1739211;82;21024;-62
2022/05/22 11:31:52;;;;;;;4.92;1.05;;;;;;;23.08;51.61;99347.20;1739241;82;22287;-63
2022/05/22 11:34:41;;;;;;;3.90;1.20;;;;;;;22.08;52.47;99350.57;1753568;81;21090;-62
2022/05/22 11:37:38;;;;;;;2.47;1.20;;;;;;;21.86;52.62;99339.49;1752982;82;21072;-63
2022/05/22 11:40:33;;;;;;;1.77;1.25;;;;;;;21.72;52.37;99348.89;1753764;80;21043;-62
2022/05/22 11:43:14;;;;;;;2.62;0.98;;;;;;;21.89;52.48;99355.70;1753362;82;21657;-62
2022/05/22 11:45:51;;;;;;;3.62;1.00;;;;;;;21.89;52.40;99345.72;1723906;83;21043;-62
2022/05/22 11:48:47;;;;;;;1.85;1.00;;;;;;;22.79;49.77;99355.28;1723864;83;21019;-62
2022/05/22 11:51:43;;;;;;;3.72;0.90;;;;;;;23.08;48.14;99335.90;1708475;82;21062;-62
2022/05/22 11:54:31;;;;;;;3.95;1.12;;;;;;;23.04;48.89;99335.94;1753435;82;21515;-61
2022/05/22 11:57:04;;;;;;;2.77;1.20;;;;;;;23.11;49.53;99337.65;1749071;81;21597;-62
2022/05/22 12:00:08;;;;;;;2.55;1.20;;;;;;;23.04;50.54;99323.63;1750732;81;21031;-62
2022/05/22 12:03:09;;;;;;;2.62;1.47;;;;;;;22.83;50.60;99331.30;1748648;82;21022;-61
2022/05/22 12:06:05;;;;;;;5.05;1.60;;;;;;;23.30;51.21;99337.66;1752781;82;21038;-62
2022/05/22 12:08:40;;;;;;;2.50;1.07;;;;;;;23.56;51.14;99327.20;1731321;82;21043;-60
2022/05/22 12:11:50;;;;;;;2.92;1.00;;;;;;;23.12;49.42;99322.23;1723693;82;21063;-62
2022/05/22 12:14:41;;;;;;;2.08;0.95;;;;;;;22.98;49.92;99326.92;1723839;82;21094;-62
2022/05/22 12:17:22;;;;;;;3.83;1.20;;;;;;;22.85;50.95;99324.91;1708226;82;21373;-61
2022/05/22 12:20:09;;;;;;;3.72;1.10;;;;;;;23.04;51.38;99326.24;1751860;82;21019;-63
2022/05/22 12:23:09;;;;;;;6.15;1.30;;;;;;;23.07;50.42;99326.38;1729086;80;21107;-62
2022/05/22 12:25:59;;;;;;;3.27;1.10;;;;;;;23.25;50.80;99330.80;1723874;82;21062;-61
2022/05/22 12:28:53;;;;;;;2.65;1.00;;;;;;;23.43;49.02;99323.91;1727524;82;21559;-62